Timeline UpdatesTrip UpdatesNews PostsPvt PostsTravel TipsAdmin PostsConv PostsFollowed PostsChat RequestsBlog PostsPNR Posts

Disclaimer
Search
 
 
Sun Apr 20, 2014 02:21:52 ISTHomeTrainsΣChainsAtlasPNRForumGalleryNewsFAQTripsMembersLoginFeedback
No Recent News for this Train
Other Trains in the News **new
Latest...
.
Sat Feb 02, 2013 (04:10PM)
⇐ Return Journey: Train# 51187

51188/Katni Bhusaval Passenger (UnReserved)

Oct 05 2013 (11:32PM)
Change Departure Station:
Change Arrival Station:
Post a Train Travel TipPost a Train Travel Tip **new
Post a Comment/Question/Picture/VideoPost a Comment/Question/Picture/Video
Pantry/Catering
???
RSA - Rake Sharing
Rake/Coach Composition
Loco
KTE-ET: KTE/ET WDM-3A ET-BSL: BSL/ET WAP-4
News    PNR    Forum    Time-Table    Availability    Fare Chart    Map    Arr/Dep History    Trips    Gallery    ΣChains    X/O    Timeline    
Travel Time: 16h 14m    64 halts    Distance: 569 km    Avg Speed: 35 km/hr
Type: Passenger
Zone: CR/Central
Departs @ 22:20 (Avg 1h 7m late)
Platform# 5
SMTWTFS
Katni Junction/KTE 
Arrives @ 14:34 +1 night (Avg 2h 4m late)
Platform# ???
SMTWTFS
Chandni/CDI 

64 halts. 70 intermediate Stations between Katni Junction and Chandni

Show ALL intermediate Stations  Show Old Time-Table

#CodeStation NameX/OArrivesAvgDepartsAvgHaltPFDay#KmSpeedElevZoneAddress
1KTE»Katni Junction (6)»  -22:20+1:07510.031387mWCRKatni, Madhya Pradesh
2MDRRMadhavnagar Road (2)X  22:30+1:1422:31+1:141m--15.148398mWCRMadhavnagar, Madhya Pradesh
3NWRNiwar (2)X  22:41+1:1422:42+1:251m--113.252412mWCRPipraundh, Madhya Pradesh
4SNRRSansarpur (2)X  22:51+1:2522:52+1:251m--120.959436mWCRNational Highway 7, Madhya Pradesh
5SBDSleemanabad Road (2)X  22:59+1:1223:00+1:141m--127.857434mWCRSleemanabad, Madhya Pradesh
6DDCEDundi (2)X  23:10+1:2623:11+1:311m--137.360415mWCRDundi, Madhya Pradesh
7SHRSihora Road (2)X  23:26+1:2423:28+1:262m--152.361388mWCRJabalpur, Madhya Pradesh
8GSPRGosalpur (2)X  23:39+1:2923:40+1:311m--163.457396mWCRJabalpur, Madhya Pradesh
9DOEDeori (2)  23:51+1:3323:52+1:341m--173.948392mWCRJabalpur, Madhya Pradesh
10ADTLAdhartal (2)X  00:03+1:3200:04+1:371m--282.730393mWCRJabalpur, Madhya Pradesh
11JBPJabalpur Junction (7)X  00:20+1:2500:30+1:4010m1290.753416mWCRJabalpur, Madhya Pradesh
12MMLMadan Mahal (3)  00:34+1:5100:36+1:512m1294.256428mWCRJabalpur, Madhya Pradesh
13BRGTBheraghat (2)  00:50+1:5200:51+1:541m--2107.361389mWCRBheraghat, Madhya Pradesh
14BHTNBhitoni (2)X  01:04+1:5301:05+2:001m--2120.458377mWCRJabalpur, Madhya Pradesh
15BMRBikrampur (2)  01:17+1:5901:18+2:061m--2132.065353mWCRBikrampur Dist Narsingpur., Madhya Pradesh
16SRIDShridham (3)XO  01:29+1:5901:31+2:062m32143.954373mWCRShridham, Madhya Pradesh
17KKBKarak Bel (2)  01:48+2:1001:49+2:111m--2159.229375mWCRKarak Bel, Madhya Pradesh
18BELDBelkhera (2)O  01:58+2:0801:59+2:131m--2163.633367mWCRState Highway 22, Madhya Pradesh
19GPCGhatpindrai (2)  02:09+2:1202:10+2:151m--2169.135366mWCRGhatpindra, Madhya Pradesh
20NUNarsinghpur (2)X  02:20+2:0902:22+2:192m22174.970365mWCRNarsimhapur, Madhya Pradesh
21KYKareli (2)X  02:36+2:2302:37+2:261m22191.345361mWCRKareli, Madhya Pradesh
22KFYKarapgaon (2)XO  02:48+2:2202:49+2:221m--2199.645364mWCRNational Highway 26, Madhya Pradesh
23BNEBohani (2)X  02:58+2:2202:59+2:311m--2206.378361mWCRNarsinghpur, Madhya Pradesh
24GARGadarwara (2)X  03:09+2:1603:10+2:231m22219.256352mWCRNarsinghpur, Madhya Pradesh
25SCKRSalichauka Road (2)X  03:25+2:3803:26+2:441m--2233.161355mWCRGadarwara, Madhya Pradesh
26JHTJunehta (2)X  03:36+2:4303:37+2:431m--2243.355353mWCRState Highway 22, Madhya Pradesh
27BKHBankhedi (2)X  03:44+2:4303:46+2:472m--2249.767351mWCRBankheri, Madhya Pradesh
28PPIPipariya (3)X  04:03+2:3804:05+2:542m32268.640338mWCRPiparia, Madhya Pradesh
29SXFSobhapur (2)X  04:18+2:5604:19+2:561m--2277.345338mWCRState Highway 22, Madhya Pradesh
30SGPSohagpur (2)X  04:31+2:5604:33+2:592m--2286.343340mWCRSohagpur, Madhya Pradesh
31GMDGuramkhedi (2)  04:47+2:5404:48+2:581m--2296.449337mWCRSohagpur, Madhya Pradesh
32BGTABagra Tawa (2)O  05:04+2:5405:05+3:081m--2309.429338mWCRBagra Tawa, Madhya Pradesh
33SQLSontalai (2)X  05:19+3:0505:20+3:071m--2316.327329mWCRItarsi, Madhya Pradesh
34GROGurra (2)X  05:40+2:5805:41+3:081m--2325.316327mWCRItarsi, Madhya Pradesh
35ETItarsi Junction (7)X  06:20+2:4306:45+3:0125m--2335.857329mWCRItarsi 461111, Madhya Pradesh
36DRADularia (2)  06:58+3:2406:59+3:291m--2348.142318mWCRItarsi, Madhya Pradesh
37KTZKhutwansa (2)X  07:07+3:2507:08+3:251m--2353.749325mWCRSH 15, Madhya Pradesh
38DKIDharamkundi (2)O  07:17+3:2507:18+3:261m--2361.131314mWCRSH 15, Madhya Pradesh
39BPFBanapura (2)  07:34+3:1507:35+3:201m--2369.349314mWCRBanapura, Madhya Pradesh
40BIFBhaironpur (2)O  07:44+3:2307:45+3:241m--2376.649322mWCRSH 15, Madhya Pradesh
41PGLPagdhal (2)X  07:54+3:2307:55+3:321m--2383.941317mWCRPagdhal, Madhya Pradesh
42CGOChhidgaon (2)X  08:01+3:2008:02+3:201m--2388.026309mWCRHarda, Madhya Pradesh
43TBNTimarni (2)  08:24+3:2008:25+3:211m--2397.547308mWCRTimarni, Madhya Pradesh
44CRKCharkhera (2)O  08:34+3:1908:35+3:221m--2404.623298mWCRBarkalan, Madhya Pradesh
45HDHarda (3)X  08:53+3:1308:55+3:162m--2411.664289mWCRHarda, Madhya Pradesh
46PALPalasner (2)X  09:02+3:1609:03+3:171m--2419.039296mWCRHarda, Madhya Pradesh
47MUOMasangaon (2)XO  09:12+3:1409:13+3:141m--2425.012303mWCRSH 15, Madhya Pradesh
48BRIBhiringi (2)  09:39+2:5909:40+3:081m--2430.2100294mWCRSH 15, Madhya Pradesh
49KROKurawan (2)X  09:44+3:0409:45+3:041m--2436.829297mWCRSH 15, Madhya Pradesh
50KKNKhirkiya (2)O  09:58+3:0610:00+3:082m12443.239281mWCRSH 15, Madhya Pradesh
51DRHIDagarhkeri (2)XO  10:17+3:0010:18+3:021m--2454.120274mWCRState Highway 15, Madhya Pradesh
52BRUDBarud (2)X  10:47+2:4610:48+2:481m--2463.776273mWCRKhandwa, Madhya Pradesh
53CAERChhanera (2)XO  10:56+2:4910:58+2:512m--2473.921283mWCRChhanera, Madhya Pradesh
54CKKDCharkheda Khurd (2)  11:17+2:4311:18+2:451m--2480.623274mWCRKhandwa, Madhya Pradesh
55SGBJSurgaon Banjari (2)  11:47+2:3011:48+2:321m--2491.871298mWCRKhandwa, Madhya Pradesh
56TLVTalvadiya (2)O  11:58+2:3312:00+2:342m--2503.556308mWCRKhandwa, Madhya Pradesh
57MTAMathela (2)XO  12:09+2:3112:10+2:321m--2511.96322mWCRKhandwa, Madhya Pradesh
58KNWKhandwa Junction (5)  13:20+2:1313:30+2:1410m--2519.344310mCRKhandwa, Madhya Pradesh
59BRGJBargaon Gujar (2)X  13:37+1:5413:38+1:551m--2524.460316mCRKhandwa, Madhya Pradesh
60BMABagmar (2)X  13:44+1:5413:45+1:571m--2530.466335mCRState Highway 27, Madhya Pradesh
61KDKKohdad (2)X  13:49+1:5913:50+1:591m--2534.857344mCRState Highway 15, Madhya Pradesh
62DGNDongargaon (2)  13:58+1:5913:59+2:021m--2542.458373mCRBorgaon, Madhya Pradesh
63SXASagphata (2)  14:07+2:0214:08+2:021m--2550.151350mCRKhandwa, Madhya Pradesh
64MWAMandwa (2)X  14:15+2:0414:16+2:051m--2556.144317mCRState Highway 27, Madhya Pradesh
65NPNRNepanagar (2)  14:24+2:0714:26+2:072m--2561.953289mCRState Highway 27, Madhya Pradesh
66CDI•Chandni (2)•  14:34+2:0414:35+2:041m--2569.077276mCRNepanagar Rd, Madhya Pradesh
67AGQAsirgarh Road (2)X  14:43+2:0514:44+2:061m--2579.267259mCRState Highway 27, Madhya Pradesh
68BAUBurhanpur (2)X  14:52+2:1014:55+2:103m12588.162269mCRBurhanpur, Madhya Pradesh
69WGAWaghodaX  15:05+2:0715:06+2:101m--2598.460259mCRChorwad, Maharashtra
70RVRaver (2)X  15:16+2:1815:18+2:182m--2608.368242mCRJalgaon, Maharashtra
71NBNimbhoraX  15:27+2:0815:28+2:121m--2618.558229mCRJalgaon, Maharashtra
72SAVSavda (2)X  15:37+2:1115:38+2:111m--2627.258220mCRSavda, Maharashtra
73DSKDuskheda (2)X  15:47+2:1315:48+2:151m--2635.96213mCRDuskheda Station, Maharashtra
74BSLBhusaval Junction (8)  17:00+2:01-62642.6-208mCRBhusaval 425201, Maharashtra
Scroll to Top
Scroll to Bottom